createdAt,value
2018-05-11T00:00:17.180Z,101606.00
2018-05-11T00:02:47.591Z,101608.85
2018-05-11T00:05:25.631Z,101607.68
2018-05-11T00:08:06.557Z,101606.27
2018-05-11T00:10:37.270Z,101605.66
2018-05-11T00:13:07.744Z,101605.16
2018-05-11T00:15:38.712Z,101608.12
2018-05-11T00:18:09.148Z,101617.08
2018-05-11T00:20:40.347Z,101616.73
2018-05-11T00:23:10.636Z,101606.41
2018-05-11T00:25:40.781Z,101604.28
2018-05-11T00:28:11.043Z,101610.94
2018-05-11T00:30:41.202Z,101609.75
2018-05-11T00:33:11.459Z,101612.47
2018-05-11T00:35:42.632Z,101612.95
2018-05-11T00:38:13.050Z,101615.20
2018-05-11T00:40:43.219Z,101602.84
2018-05-11T00:43:13.389Z,101620.09
2018-05-11T00:45:44.711Z,101618.08
2018-05-11T00:48:15.213Z,101618.69
2018-05-11T00:50:45.479Z,101618.85
2018-05-11T00:53:15.633Z,101617.22
2018-05-11T00:55:51.455Z,101626.11
2018-05-11T00:58:21.608Z,101620.59
2018-05-11T01:00:51.828Z,101620.89
2018-05-11T01:03:22.074Z,101622.45
2018-05-11T01:05:52.287Z,101620.33
2018-05-11T01:08:22.512Z,101623.06
2018-05-11T01:10:55.136Z,101624.08
2018-05-11T01:13:25.346Z,101604.46
2018-05-11T01:15:55.829Z,101610.45
2018-05-11T01:18:25.967Z,101621.67
2018-05-11T01:20:56.158Z,101620.97
2018-05-11T01:23:27.164Z,101627.78
2018-05-11T01:25:57.441Z,101628.27
2018-05-11T01:28:27.700Z,101625.52
2018-05-11T01:30:59.022Z,101621.14
2018-05-11T01:33:29.203Z,101625.16
2018-05-11T01:35:59.965Z,101625.45
2018-05-11T01:38:30.273Z,101617.05
2018-05-11T01:41:00.593Z,101621.86
2018-05-11T01:43:31.576Z,101619.59
2018-05-11T01:46:03.331Z,101626.36
2018-05-11T01:48:33.692Z,101619.86
2018-05-11T01:51:04.982Z,101629.83
2018-05-11T01:53:35.273Z,101629.45
2018-05-11T01:56:08.584Z,101628.32
2018-05-11T01:58:38.800Z,101632.69
2018-05-11T02:01:11.221Z,101628.75
2018-05-11T02:03:51.622Z,101624.58
2018-05-11T02:06:23.175Z,101626.72
2018-05-11T02:08:56.795Z,101625.92
2018-05-11T02:11:27.013Z,101630.97
2018-05-11T02:13:57.116Z,101627.00
2018-05-11T02:16:27.313Z,101625.67
2018-05-11T02:18:58.047Z,101629.75
2018-05-11T02:21:28.612Z,101622.23
2018-05-11T02:23:59.661Z,101620.20
2018-05-11T02:26:31.304Z,101625.36
2018-05-11T02:29:08.179Z,101628.34
2018-05-11T02:31:38.800Z,101626.83
2018-05-11T02:34:10.205Z,101620.55
2018-05-11T02:36:40.660Z,101618.98
2018-05-11T02:39:12.645Z,101603.44
2018-05-11T02:41:44.163Z,101621.53
2018-05-11T02:44:24.603Z,101613.04
2018-05-11T02:46:54.825Z,101617.92
2018-05-11T02:49:25.089Z,101611.77
2018-05-11T02:51:55.230Z,101613.61
2018-05-11T02:54:25.558Z,101615.25
2018-05-11T02:56:56.147Z,101618.55
2018-05-11T02:59:26.576Z,101616.14
2018-05-11T03:01:58.133Z,101611.88
2018-05-11T03:04:30.547Z,101614.75
2018-05-11T03:07:02.503Z,101613.58
2018-05-11T03:09:33.621Z,101610.23
2018-05-11T03:12:04.232Z,101607.88
2018-05-11T03:14:34.575Z,101608.00
2018-05-11T03:17:04.765Z,101610.02
2018-05-11T03:19:35.449Z,101617.72
2018-05-11T03:22:05.997Z,101616.60
2018-05-11T03:24:36.367Z,101619.48
2018-05-11T03:27:07.026Z,101613.17
2018-05-11T03:29:37.600Z,101612.30
2018-05-11T03:32:19.863Z,101618.19
2018-05-11T03:34:50.463Z,101619.41
2018-05-11T04:22:40.273Z,101632.38
2018-05-11T04:25:11.553Z,101626.41
2018-05-11T04:27:42.951Z,101637.77
2018-05-11T04:30:16.144Z,101638.49
2018-05-11T04:32:46.392Z,101640.23
2018-05-11T04:35:16.769Z,101644.72
2018-05-11T04:37:47.406Z,101643.91
2018-05-11T04:40:18.347Z,101649.00
2018-05-11T04:42:54.810Z,101650.34
2018-05-11T04:45:33.676Z,101652.62
2018-05-11T04:48:09.007Z,101658.48
2018-05-11T04:50:39.562Z,101655.08
2018-05-11T04:53:11.608Z,101657.73
2018-05-11T04:55:41.836Z,101662.02
2018-05-11T04:58:15.173Z,101662.39
2018-05-11T05:00:46.308Z,101662.83
2018-05-11T05:03:17.641Z,101664.78
2018-05-11T05:05:48.572Z,101663.47
2018-05-11T05:08:26.785Z,101666.72
2018-05-11T05:10:58.385Z,101657.10
2018-05-11T05:13:32.553Z,101658.22
2018-05-11T05:16:05.412Z,101660.14
2018-05-11T05:18:35.808Z,101660.85
2018-05-11T05:21:06.044Z,101657.22
2018-05-11T05:23:36.681Z,101650.67
2018-05-11T05:26:08.188Z,101661.94
2018-05-11T05:28:38.606Z,101655.47
2018-05-11T05:31:19.440Z,101653.63
2018-05-11T05:34:04.066Z,101656.72
2018-05-11T05:36:35.073Z,101659.39
2018-05-11T05:39:06.324Z,101659.08
2018-05-11T05:41:37.349Z,101656.62
2018-05-11T05:44:33.437Z,101666.73
2018-05-11T05:47:04.022Z,101661.67
2018-05-11T05:49:34.338Z,101662.67
2018-05-11T05:52:05.501Z,101655.64
2018-05-11T05:54:36.759Z,101651.00
2018-05-11T05:57:06.947Z,101657.56
2018-05-11T05:59:37.573Z,101662.78
2018-05-11T06:02:07.732Z,101665.38
2018-05-11T06:04:38.139Z,101659.26
2018-05-11T06:07:11.544Z,101652.23
2018-05-11T06:09:53.481Z,101648.49
2018-05-11T06:21:15.400Z,101652.48
2018-05-11T06:23:45.618Z,101635.84
2018-05-11T06:26:21.161Z,101661.22
2018-05-11T06:29:07.840Z,101661.28
2018-05-11T06:31:38.725Z,101655.28
2018-05-11T06:34:13.679Z,101661.13
2018-05-11T06:36:51.355Z,101662.00
2018-05-11T06:39:21.877Z,101657.59
2018-05-11T06:41:52.144Z,101662.39
2018-05-11T06:44:22.654Z,101652.10
2018-05-11T06:46:52.966Z,101613.38
2018-05-11T06:49:23.515Z,101645.59
2018-05-11T06:51:53.602Z,101649.77
2018-05-11T06:54:24.017Z,101650.70
2018-05-11T06:56:55.271Z,101642.16
2018-05-11T06:59:25.813Z,101648.25
2018-05-11T07:01:56.537Z,101641.88
2018-05-11T07:04:26.732Z,101627.74
2018-05-11T07:06:57.052Z,101638.83
2018-05-11T07:09:27.724Z,101636.87
2018-05-11T07:11:57.995Z,101639.14
2018-05-11T07:14:29.091Z,101636.14
2018-05-11T07:16:59.465Z,101640.00
2018-05-11T07:19:29.932Z,101634.08
2018-05-11T07:22:01.058Z,101631.04
2018-05-11T07:24:31.389Z,101635.77
2018-05-11T07:27:01.589Z,101637.74
2018-05-11T07:29:32.680Z,101633.48
2018-05-11T07:32:03.266Z,101635.62
2018-05-11T07:34:33.699Z,101625.17
2018-05-11T07:37:07.706Z,101630.19
2018-05-11T07:39:39.078Z,101630.64
2018-05-11T07:42:10.602Z,101630.73
2018-05-11T07:44:42.973Z,101629.33
2018-05-11T07:47:13.710Z,101634.58
2018-05-11T07:49:43.956Z,101623.20
2018-05-11T07:52:14.115Z,101633.30
2018-05-11T07:54:45.165Z,101626.30
2018-05-11T07:57:16.615Z,101629.19
2018-05-11T07:59:47.559Z,101620.74
2018-05-11T08:02:19.749Z,101619.95
2018-05-11T08:04:49.942Z,101617.34
2018-05-11T08:07:20.659Z,101612.70
2018-05-11T08:10:00.194Z,101610.54
2018-05-11T08:12:35.459Z,101614.77
2018-05-11T08:15:07.550Z,101607.97
2018-05-11T08:17:41.371Z,101606.13
2018-05-11T08:20:13.709Z,101604.53
2018-05-11T08:22:45.826Z,101608.45
2018-05-11T08:25:16.469Z,101573.39
2018-05-11T08:27:47.124Z,101602.12
2018-05-11T08:30:27.214Z,101604.45
2018-05-11T08:32:59.035Z,101602.28
2018-05-11T08:35:29.760Z,101605.72
2018-05-11T08:38:00.617Z,101604.13
2018-05-11T08:40:31.568Z,101595.05
2018-05-11T08:43:02.197Z,101577.81
2018-05-11T08:48:10.321Z,101588.13
2018-05-11T08:50:40.775Z,101568.66
2018-05-11T08:53:44.213Z,101585.75
2018-05-11T08:56:16.469Z,101577.05
2018-05-11T08:58:52.815Z,101578.96
2018-05-11T09:01:23.559Z,101576.23
2018-05-11T09:03:54.239Z,101581.25
2018-05-11T09:06:45.944Z,101567.75
2018-05-11T09:09:16.669Z,101563.96
2018-05-11T09:11:47.117Z,101566.66
2018-05-11T09:16:57.157Z,101565.08
2018-05-11T09:19:27.810Z,101509.86
2018-05-11T09:22:00.330Z,101554.27
2018-05-11T09:24:33.843Z,101556.98
2018-05-11T09:27:07.395Z,101547.80
2018-05-11T09:29:38.963Z,101555.56
2018-05-11T09:32:11.058Z,101545.18
2018-05-11T09:34:41.924Z,101541.17
2018-05-11T09:37:20.319Z,101541.00
2018-05-11T09:39:54.235Z,101534.84
2018-05-11T09:42:27.133Z,101531.07
2018-05-11T09:44:57.394Z,101526.90
2018-05-11T09:47:28.541Z,101520.09
2018-05-11T09:49:59.318Z,101527.12
2018-05-11T09:52:29.646Z,101516.98
2018-05-11T09:55:00.170Z,101528.05
2018-05-11T09:57:30.499Z,101525.92
2018-05-11T10:00:01.369Z,101520.67
2018-05-11T10:02:37.979Z,101528.47
2018-05-11T10:05:08.795Z,101531.57
2018-05-11T10:07:39.865Z,101527.59
2018-05-11T10:10:32.341Z,101535.77
2018-05-11T10:13:03.606Z,101508.41
2018-05-11T10:15:35.039Z,101510.69
2018-05-11T10:18:05.683Z,101510.53
2018-05-11T10:20:38.706Z,101506.57
2018-05-11T10:23:09.542Z,101513.97
2018-05-11T10:25:40.937Z,101517.19
2018-05-11T10:28:11.234Z,101501.55
2018-05-11T10:30:41.670Z,101505.98
2018-05-11T10:33:12.562Z,101505.35
2018-05-11T10:35:43.160Z,101503.03
2018-05-11T10:38:15.184Z,101494.02
2018-05-11T10:40:53.248Z,101494.78
2018-05-11T10:43:25.642Z,101493.20
2018-05-11T10:45:58.337Z,101482.08
2018-05-11T10:48:33.201Z,101483.05
2018-05-11T10:51:10.307Z,101482.88
2018-05-11T10:53:42.226Z,101474.88
2018-05-11T10:56:13.373Z,101480.20
2018-05-11T10:58:46.210Z,101466.98
2018-05-11T11:01:18.439Z,101473.58
2018-05-11T11:03:50.516Z,101466.38
2018-05-11T11:06:22.510Z,101471.73
2018-05-11T11:08:56.697Z,101461.25
2018-05-11T11:11:28.640Z,101460.46
2018-05-11T11:14:00.082Z,101458.20
2018-05-11T11:16:32.125Z,101450.11
2018-05-11T11:19:06.523Z,101453.05
2018-05-11T11:21:39.123Z,101457.31
2018-05-11T11:24:23.237Z,101453.43
2018-05-11T11:27:14.705Z,101435.44
2018-05-11T11:29:46.517Z,101434.80
2018-05-11T11:32:18.164Z,101439.28
2018-05-11T11:34:50.093Z,101441.30
2018-05-11T11:37:21.814Z,101425.54
2018-05-11T11:39:55.017Z,101410.39
2018-05-11T11:42:26.784Z,101441.42
2018-05-11T11:44:57.269Z,101401.94
2018-05-11T11:47:31.010Z,101403.86
2018-05-11T11:50:14.548Z,101408.82
2018-05-11T11:52:55.381Z,101400.84
2018-05-11T11:55:27.320Z,101405.05
2018-05-11T12:03:13.081Z,101390.05
2018-05-11T12:05:44.121Z,101390.10
2018-05-11T12:08:14.426Z,101380.95
2018-05-11T12:10:45.043Z,101382.36
2018-05-11T12:13:15.814Z,101371.77
2018-05-11T12:15:52.203Z,101380.60
2018-05-11T12:18:27.138Z,101375.02
2018-05-11T12:20:57.808Z,101377.59
2018-05-11T12:23:46.257Z,101368.67
2018-05-11T12:26:21.195Z,101371.36
2018-05-11T12:29:02.757Z,101362.28
2018-05-11T12:31:36.195Z,101367.33
2018-05-11T12:34:07.864Z,101356.38
2018-05-11T12:36:51.148Z,101368.25
2018-05-11T12:39:23.264Z,101352.27
2018-05-11T12:41:54.856Z,101359.87
2018-05-11T12:44:27.177Z,101340.04
2018-05-11T12:46:58.810Z,101343.55
2018-05-11T12:49:30.330Z,101343.88
2018-05-11T12:52:07.392Z,101349.64
2018-05-11T12:54:41.008Z,101346.89
2018-05-11T13:00:23.064Z,101341.47
2018-05-11T13:02:55.077Z,101342.48
2018-05-11T13:05:26.393Z,101293.36
2018-05-11T13:07:59.849Z,101326.34
2018-05-11T13:10:40.212Z,101320.02
2018-05-11T13:13:12.072Z,101323.97
2018-05-11T13:15:45.296Z,101327.45
2018-05-11T13:18:16.681Z,101311.23
2018-05-11T13:20:47.786Z,101314.14
2018-05-11T13:23:19.472Z,101315.22
2018-05-11T13:25:50.942Z,101304.11
2018-05-11T13:28:22.340Z,101294.56
2018-05-11T13:30:55.558Z,101301.11
2018-05-11T13:33:27.049Z,101298.20
2018-05-11T13:35:58.214Z,101302.18
2018-05-11T13:38:28.581Z,101298.09
2018-05-11T13:40:59.819Z,101298.05
2018-05-11T13:43:47.543Z,101292.70
2018-05-11T13:46:27.763Z,101287.93
2018-05-11T13:49:13.512Z,101299.73
2018-05-11T13:51:45.830Z,101292.00
2018-05-11T13:54:19.614Z,101280.38
2018-05-11T13:57:14.592Z,101286.62
2018-05-11T13:59:46.460Z,101285.22
2018-05-11T14:02:17.439Z,101269.93
2018-05-11T14:04:52.957Z,101270.73
2018-05-11T14:07:24.625Z,101280.21
2018-05-11T14:09:55.557Z,101260.94
2018-05-11T14:12:31.722Z,101276.20
2018-05-11T14:15:06.990Z,101281.16
2018-05-11T14:17:59.898Z,101280.39
2018-05-11T14:20:31.063Z,101278.68
2018-05-11T14:23:02.862Z,101267.90
2018-05-11T14:25:39.161Z,101262.12
2018-05-11T14:32:40.775Z,101254.50
2018-05-11T14:37:47.265Z,101250.25
2018-05-11T14:40:28.421Z,101249.33
2018-05-11T14:43:06.112Z,101241.20
2018-05-11T14:45:41.551Z,101237.89
2018-05-11T14:48:17.942Z,101250.44
2018-05-11T14:50:50.453Z,101228.98
2018-05-11T14:53:25.640Z,101233.59
2018-05-11T14:56:10.337Z,101222.30
2018-05-11T14:58:43.981Z,101215.12
2018-05-11T15:01:16.632Z,101220.09
2018-05-11T15:03:52.557Z,101210.66
2018-05-11T15:06:37.909Z,101219.45
2018-05-11T15:09:10.673Z,101197.96
2018-05-11T15:11:51.011Z,101217.99
2018-05-11T15:14:23.495Z,101212.78
2018-05-11T15:16:56.568Z,101207.33
2018-05-11T15:19:34.136Z,101210.80
2018-05-11T15:22:15.712Z,101213.16
2018-05-11T15:24:47.745Z,101204.40
2018-05-11T15:27:21.971Z,101202.66
2018-05-11T15:29:57.343Z,101198.17
2018-05-11T15:32:32.506Z,101201.31
2018-05-11T15:35:04.213Z,101194.85
2018-05-11T15:40:20.557Z,101194.79
2018-05-11T15:42:50.925Z,101193.40
2018-05-11T15:45:26.381Z,101193.39
2018-05-11T15:48:01.606Z,101157.42
2018-05-11T15:50:33.553Z,101183.10
2018-05-11T15:53:07.220Z,101186.74
2018-05-11T15:55:42.371Z,101151.77
2018-05-11T15:58:14.264Z,101184.02
2018-05-11T16:00:45.654Z,101164.48
2018-05-11T16:03:20.205Z,101172.95
2018-05-11T16:05:51.637Z,101180.11
2018-05-11T16:08:22.939Z,101175.84
2018-05-11T16:10:57.208Z,101176.90
2018-05-11T16:13:31.985Z,101175.39
2018-05-11T16:16:09.080Z,101175.27
2018-05-11T16:18:53.229Z,101172.43
2018-05-11T16:21:31.135Z,101154.25
2018-05-11T16:24:06.721Z,101164.36
2018-05-11T16:26:37.238Z,101158.02
2018-05-11T16:29:10.480Z,101161.61
2018-05-11T16:31:43.713Z,101161.92
2018-05-11T16:34:14.399Z,101152.08
2018-05-11T16:36:44.683Z,101156.66
2018-05-11T16:39:17.589Z,101153.76
2018-05-11T16:41:50.707Z,101157.26
2018-05-11T16:44:21.511Z,101153.30
2018-05-11T16:46:52.507Z,101135.51
2018-05-11T16:49:22.815Z,101160.03
2018-05-11T16:51:54.034Z,101154.67
2018-05-11T16:54:25.350Z,101160.51
2018-05-11T16:56:57.064Z,101151.44
2018-05-11T16:59:28.109Z,101154.30
2018-05-11T17:02:08.003Z,101146.03
2018-05-11T17:04:41.657Z,101144.47
2018-05-11T17:07:26.030Z,101145.98
2018-05-11T17:10:04.312Z,101147.89
2018-05-11T17:12:36.589Z,101147.17
2018-05-11T17:15:09.928Z,101138.06
2018-05-11T17:17:47.026Z,101130.03
2018-05-11T17:20:18.923Z,101126.48
2018-05-11T17:22:49.444Z,101137.09
2018-05-11T17:25:20.208Z,101133.72
2018-05-11T17:27:55.001Z,101130.53
2018-05-11T17:30:26.175Z,101139.44
2018-05-11T17:32:57.520Z,101133.95
2018-05-11T17:35:27.928Z,101137.28
2018-05-11T17:44:12.308Z,101138.00
2018-05-11T17:46:44.498Z,101116.08
2018-05-11T17:49:20.883Z,101133.63
2018-05-11T17:51:51.408Z,101129.96
2018-05-11T17:54:26.573Z,101141.05
2018-05-11T17:56:59.441Z,101138.95
2018-05-11T17:59:29.946Z,101139.25
2018-05-11T18:02:01.597Z,101134.97
2018-05-11T18:04:32.457Z,101132.80
2018-05-11T18:07:04.043Z,101135.42
2018-05-11T18:09:37.194Z,101129.04
2018-05-11T18:12:08.130Z,101117.20
2018-05-11T18:14:54.277Z,101129.23
2018-05-11T18:17:25.055Z,101132.78
2018-05-11T18:19:55.658Z,101132.07
2018-05-11T18:22:27.100Z,101125.37
2018-05-11T18:25:00.819Z,101119.09
2018-05-11T18:27:32.252Z,101120.87
2018-05-11T18:30:07.496Z,101124.02
2018-05-11T18:32:39.166Z,101129.02
2018-05-11T18:35:12.761Z,101119.30
2018-05-11T18:37:49.811Z,101114.75
2018-05-11T18:40:22.714Z,101115.25
2018-05-11T18:42:53.218Z,101121.27
2018-05-11T18:45:23.445Z,101120.79
2018-05-11T18:47:54.840Z,101121.69
2018-05-11T18:50:27.364Z,101123.45
2018-05-11T18:52:58.356Z,101117.28
2018-05-11T18:55:29.606Z,101119.17
2018-05-11T18:58:25.528Z,101120.03
2018-05-11T19:00:57.498Z,101132.88
2018-05-11T19:05:56.831Z,101122.90
2018-05-11T19:08:28.408Z,101130.14
2018-05-11T19:11:02.285Z,101131.76
2018-05-11T19:13:33.861Z,101129.91
2018-05-11T19:16:06.826Z,101134.65
2018-05-11T19:18:41.391Z,101138.03
2018-05-11T19:21:14.379Z,101139.24
2018-05-11T19:23:45.716Z,101147.88
2018-05-11T19:26:18.376Z,101149.75
2018-05-11T19:28:49.853Z,101150.33
2018-05-11T19:31:22.783Z,101166.39
2018-05-11T19:36:35.712Z,101151.42
2018-05-11T19:39:07.765Z,101156.05
2018-05-11T19:41:39.447Z,101157.77
2018-05-11T19:44:11.968Z,101160.32
2018-05-11T19:46:45.339Z,101157.27
2018-05-11T19:49:17.087Z,101155.53
2018-05-11T19:51:49.192Z,101159.44
2018-05-11T19:54:27.665Z,101162.36
2018-05-11T19:57:00.168Z,101161.61
2018-05-11T19:59:32.034Z,101162.55
2018-05-11T20:02:05.330Z,101169.65
2018-05-11T20:04:37.114Z,101167.99
2018-05-11T20:07:10.801Z,101164.92
2018-05-11T20:09:42.329Z,101169.34
2018-05-11T20:12:15.243Z,101172.80
2018-05-11T20:14:56.588Z,101174.39
2018-05-11T20:17:45.633Z,101170.52
2018-05-11T20:20:24.304Z,101164.53
2018-05-11T20:22:56.956Z,101174.64
2018-05-11T20:25:32.606Z,101178.52
2018-05-11T20:28:05.152Z,101183.14
2018-05-11T20:30:39.391Z,101178.30
2018-05-11T20:35:49.483Z,101164.48
2018-05-11T20:38:20.930Z,101173.80
2018-05-11T20:43:31.692Z,101171.84
2018-05-11T20:48:46.475Z,101171.56
2018-05-11T20:51:20.966Z,101164.80
2018-05-11T20:53:51.710Z,101163.33
2018-05-11T20:56:23.117Z,101174.35
2018-05-11T20:59:05.210Z,101173.75
2018-05-11T21:01:35.869Z,101173.17
2018-05-11T21:04:07.482Z,101173.50
2018-05-11T21:06:38.282Z,101169.33
2018-05-11T21:12:23.665Z,101167.64
2018-05-11T21:14:55.288Z,101161.56
2018-05-11T21:17:26.498Z,101158.08
2018-05-11T21:19:58.419Z,101154.95
2018-05-11T21:25:10.211Z,101161.89
2018-05-11T21:27:41.099Z,101170.45
2018-05-11T21:30:26.568Z,101161.47
2018-05-11T21:32:57.249Z,101163.81
2018-05-11T21:35:27.810Z,101166.88
2018-05-11T21:38:00.390Z,101166.43
2018-05-11T21:40:31.926Z,101168.11
2018-05-11T21:43:05.487Z,101168.14
2018-05-11T21:45:39.275Z,101169.43
2018-05-11T21:48:12.368Z,101167.30
2018-05-11T21:50:43.653Z,101170.57
2018-05-11T21:53:14.343Z,101172.23
2018-05-11T21:55:44.732Z,101168.57
2018-05-11T21:58:15.151Z,101170.02
2018-05-11T22:00:47.001Z,101174.29
2018-05-11T22:03:18.790Z,101174.96
2018-05-11T22:05:51.270Z,101173.17
2018-05-11T22:08:25.855Z,101174.73
2018-05-11T22:10:56.505Z,101175.97
2018-05-11T22:13:28.159Z,101176.14
2018-05-11T22:16:02.105Z,101172.97
2018-05-11T22:18:33.024Z,101180.35
2018-05-11T22:21:04.542Z,101175.05
2018-05-11T22:23:35.917Z,101175.27
2018-05-11T22:26:18.644Z,101179.44
2018-05-11T22:28:50.368Z,101182.84
2018-05-11T22:31:37.198Z,101179.84
2018-05-11T22:34:09.666Z,101182.54
2018-05-11T22:36:40.467Z,101174.35
2018-05-11T22:39:11.635Z,101182.86
2018-05-11T22:41:43.194Z,101186.04
2018-05-11T22:44:13.435Z,101182.30
2018-05-11T22:46:43.945Z,101173.91
2018-05-11T22:49:16.414Z,101180.69
2018-05-11T22:51:46.808Z,101176.72
2018-05-11T22:54:17.117Z,101172.10
2018-05-11T22:56:47.453Z,101170.78
2018-05-11T22:59:18.076Z,101167.23
2018-05-11T23:01:49.413Z,101171.36
2018-05-11T23:04:22.988Z,101174.33
2018-05-11T23:06:53.536Z,101176.67
2018-05-11T23:09:24.201Z,101177.31
2018-05-11T23:11:56.015Z,101173.19
2018-05-11T23:14:29.799Z,101169.54
2018-05-11T23:20:06.178Z,101174.33
2018-05-11T23:22:37.087Z,101172.41
2018-05-11T23:25:07.336Z,101175.91
2018-05-11T23:27:37.485Z,101184.66
2018-05-11T23:30:08.065Z,101183.80
2018-05-11T23:32:38.533Z,101176.20
2018-05-11T23:35:09.201Z,101184.88
2018-05-11T23:37:39.337Z,101178.92
2018-05-11T23:40:10.236Z,101173.70
2018-05-11T23:42:40.793Z,101181.80
2018-05-11T23:45:14.043Z,101173.74
2018-05-11T23:47:44.473Z,101177.23
2018-05-11T23:50:17.655Z,101173.19
2018-05-11T23:52:47.921Z,101170.42
2018-05-11T23:55:18.703Z,101173.41
2018-05-11T23:57:49.388Z,101172.06
